Time;durP1;ratioP1;P1;durP2;ratioP2;P2;SDS_P1;SDS_P2;PMS_P1;PMS_P2;Temp;Humidity;BMP_temperature;BMP_pressure;BME280_temperature;BME280_humidity;BME280_pressure;Samples;Min_cycle;Max_cycle;Signal;HPM_P1;HPM_P2
2023/07/18 00:00:00;;;;;;;15.93;14.63;;;;;;;27.02;100.00;101280.84;2080726;28;20181;-64
2023/07/18 00:01:00;;;;;;;16.23;14.63;;;;;;;27.01;100.00;101282.13;2088761;28;20234;-65
2023/07/18 00:02:01;;;;;;;16.57;15.17;;;;;;;27.02;100.00;101286.53;2083050;28;20315;-64
2023/07/18 00:03:03;;;;;;;16.93;15.53;;;;;;;26.86;100.00;101256.16;2086283;28;20196;-64
2023/07/18 00:04:05;;;;;;;16.40;14.90;;;;;;;27.01;100.00;101282.91;2083320;28;20208;-64
2023/07/18 00:05:07;;;;;;;16.63;15.23;;;;;;;26.42;100.00;101194.72;2084450;28;20254;-64
2023/07/18 00:06:08;;;;;;;16.60;14.80;;;;;;;27.02;100.00;101284.44;2088514;28;20188;-65
2023/07/18 00:07:08;;;;;;;16.23;14.77;;;;;;;26.99;100.00;101284.72;2086255;28;20184;-65
2023/07/18 00:08:09;;;;;;;17.87;16.37;;;;;;;26.95;100.00;101281.41;2080840;28;20230;-65
2023/07/18 00:09:09;;;;;;;17.30;15.80;;;;;;;26.95;100.00;101285.03;2080348;28;20208;-64
2023/07/18 00:10:11;;;;;;;16.27;14.77;;;;;;;26.93;100.00;101273.38;2088570;28;20223;-64
2023/07/18 00:11:11;;;;;;;17.15;15.68;;;;;;;27.00;100.00;101281.38;2088588;28;20188;-64
2023/07/18 00:12:12;;;;;;;16.45;14.90;;;;;;;26.99;100.00;101285.50;2081915;28;20272;-65
2023/07/18 00:13:12;;;;;;;16.98;15.35;;;;;;;26.95;100.00;101282.19;2080655;28;20177;-65
2023/07/18 00:14:15;;;;;;;16.45;15.05;;;;;;;26.82;100.00;101261.34;2080187;28;20326;-64
2023/07/18 00:15:16;;;;;;;16.27;14.88;;;;;;;26.92;100.00;101276.78;2080355;28;20560;-64
2023/07/18 00:16:16;;;;;;;16.15;14.55;;;;;;;26.91;100.00;101276.00;2082081;28;20272;-65
2023/07/18 00:17:17;;;;;;;16.48;14.98;;;;;;;26.95;100.00;101275.72;2081254;28;20193;-65
2023/07/18 00:18:21;;;;;;;16.52;15.00;;;;;;;26.94;100.00;101269.25;2081436;28;20748;-65
2023/07/18 00:19:21;;;;;;;16.80;14.50;;;;;;;26.93;100.00;101276.22;2089744;28;20192;-65
2023/07/18 00:20:23;;;;;;;16.52;14.93;;;;;;;26.83;100.00;101257.22;2083549;28;20239;-64
2023/07/18 00:21:23;;;;;;;15.73;14.20;;;;;;;26.90;100.00;101270.84;2086922;28;20245;-65
2023/07/18 00:22:24;;;;;;;16.20;14.77;;;;;;;26.41;100.00;101195.25;2082407;28;20262;-64
2023/07/18 00:23:24;;;;;;;15.60;14.20;;;;;;;26.85;100.00;101263.13;2082167;28;20610;-65
2023/07/18 00:24:25;;;;;;;16.65;14.93;;;;;;;26.84;100.00;101264.44;2079795;28;20204;-64
2023/07/18 00:25:25;;;;;;;16.00;14.50;;;;;;;26.84;100.00;101259.53;2073925;28;20188;-65
2023/07/18 00:26:26;;;;;;;15.57;14.15;;;;;;;26.86;100.00;101256.16;2081506;28;20670;-65
2023/07/18 00:27:28;;;;;;;17.23;15.60;;;;;;;26.84;100.00;101253.06;2081627;28;20268;-64
2023/07/18 00:28:28;;;;;;;15.27;13.85;;;;;;;26.82;100.00;101258.50;2081949;28;20181;-64
2023/07/18 00:29:28;;;;;;;15.38;13.88;;;;;;;26.78;100.00;101258.03;2081522;28;20275;-65
2023/07/18 00:30:29;;;;;;;15.77;14.20;;;;;;;26.83;100.00;101258.00;2081967;28;20208;-64
2023/07/18 00:31:30;;;;;;;14.77;13.52;;;;;;;26.85;100.00;101254.59;2081453;28;20634;-65
2023/07/18 00:32:30;;;;;;;15.20;13.90;;;;;;;26.84;100.00;101253.84;2081779;28;20193;-65
2023/07/18 00:33:31;;;;;;;14.57;13.35;;;;;;;26.83;100.00;101257.22;2081765;28;20256;-64
2023/07/18 00:34:31;;;;;;;14.60;13.30;;;;;;;26.81;100.00;101262.66;2081420;28;20173;-64
2023/07/18 00:35:31;;;;;;;14.27;12.93;;;;;;;26.79;100.00;101251.81;2081999;28;20204;-65
2023/07/18 00:36:32;;;;;;;14.87;13.47;;;;;;;26.80;100.00;101258.25;2081784;28;20184;-65
2023/07/18 00:37:32;;;;;;;14.27;13.07;;;;;;;26.80;100.00;101247.66;2081819;28;20212;-64
2023/07/18 00:38:33;;;;;;;14.27;12.98;;;;;;;26.80;100.00;101249.72;2089175;28;20189;-64
2023/07/18 00:39:33;;;;;;;15.07;13.50;;;;;;;26.78;100.00;101244.59;2085801;28;20670;-64
2023/07/18 00:40:34;;;;;;;14.33;13.03;;;;;;;26.76;100.00;101243.56;2076119;28;20666;-64
2023/07/18 00:41:34;;;;;;;14.13;12.80;;;;;;;26.77;100.00;101254.41;2081517;28;20184;-64
2023/07/18 00:42:35;;;;;;;13.85;12.55;;;;;;;26.77;100.00;101248.72;2081502;28;20230;-64
2023/07/18 00:43:35;;;;;;;13.77;12.55;;;;;;;26.77;100.00;101248.72;2082110;28;20253;-65
2023/07/18 00:44:36;;;;;;;14.13;12.93;;;;;;;26.77;100.00;101245.13;2087977;28;20207;-64
2023/07/18 00:45:36;;;;;;;14.52;13.32;;;;;;;26.77;100.00;101243.03;2083572;28;20682;-65
2023/07/18 00:46:36;;;;;;;14.55;13.10;;;;;;;26.81;100.00;101242.75;2076794;28;20260;-64
2023/07/18 00:47:43;;;;;;;13.77;12.57;;;;;;;26.79;100.00;101248.97;2084856;28;20282;-65
2023/07/18 00:48:44;;;;;;;13.27;12.18;;;;;;;26.74;100.00;101244.09;2091490;28;20202;-64
2023/07/18 00:49:48;;;;;;;14.32;13.02;;;;;;;26.79;100.00;101234.75;2085315;28;20183;-65
2023/07/18 00:50:49;;;;;;;14.50;13.23;;;;;;;26.38;100.00;101182.88;2074723;28;20240;-65
2023/07/18 00:51:49;;;;;;;13.98;12.65;;;;;;;26.77;100.00;101243.03;2081758;28;20307;-64
2023/07/18 00:52:52;;;;;;;14.35;13.02;;;;;;;26.75;100.00;101242.78;2089982;28;20634;-64
2023/07/18 00:53:53;;;;;;;13.93;12.55;;;;;;;25.99;100.00;101147.53;2075022;28;20577;-65
2023/07/18 00:54:53;;;;;;;13.98;12.40;;;;;;;26.64;100.00;101233.56;2079871;28;20235;-64
2023/07/18 00:55:54;;;;;;;14.10;12.75;;;;;;;26.58;100.00;101230.00;2086621;28;20192;-65
2023/07/18 00:56:55;;;;;;;13.53;12.23;;;;;;;26.70;100.00;101245.66;2086081;28;21040;-64
2023/07/18 00:57:57;;;;;;;13.57;12.35;;;;;;;26.74;100.00;101244.09;2081613;28;20204;-65
2023/07/18 00:58:58;;;;;;;13.52;12.20;;;;;;;26.78;100.00;101244.59;2081649;28;20280;-64
2023/07/18 00:59:59;;;;;;;13.68;12.32;;;;;;;26.66;100.00;101231.75;2081462;28;20184;-64
2023/07/18 01:01:00;;;;;;;13.50;12.30;;;;;;;26.53;100.00;101203.16;2081622;28;20173;-64
2023/07/18 01:02:02;;;;;;;13.68;12.43;;;;;;;26.76;100.00;101243.56;2081497;28;20199;-64
2023/07/18 01:03:03;;;;;;;13.88;12.48;;;;;;;26.77;100.00;101236.59;2081382;28;20275;-65
2023/07/18 01:04:04;;;;;;;13.57;12.27;;;;;;;26.76;100.00;101235.81;2087035;28;20274;-64
2023/07/18 01:05:05;;;;;;;13.93;12.52;;;;;;;26.71;100.00;101230.94;2085212;28;20193;-64
2023/07/18 01:06:05;;;;;;;14.32;12.77;;;;;;;26.73;100.00;101238.94;2084916;28;20689;-65
2023/07/18 01:07:06;;;;;;;13.48;12.07;;;;;;;26.75;100.00;101233.47;2086886;28;20914;-64
2023/07/18 01:08:06;;;;;;;14.20;12.85;;;;;;;26.70;100.00;101235.09;2081447;28;20594;-64
2023/07/18 01:09:08;;;;;;;15.05;12.82;;;;;;;26.73;100.00;101238.94;2081661;28;20187;-64
2023/07/18 01:10:23;;;;;;;16.55;13.00;;;;;;;26.70;100.00;101234.31;2081858;28;20188;-65
2023/07/18 01:11:23;;;;;;;13.55;12.10;;;;;;;26.45;100.00;101204.25;2089847;28;20255;-65
2023/07/18 01:12:23;;;;;;;14.23;12.73;;;;;;;26.71;100.00;101247.25;2081476;28;20192;-65
2023/07/18 01:13:24;;;;;;;14.17;12.77;;;;;;;26.69;100.00;101247.75;2087479;28;20200;-64
2023/07/18 01:14:25;;;;;;;13.93;12.60;;;;;;;26.69;100.00;101238.44;2084418;28;20696;-64
2023/07/18 01:15:31;;;;;;;14.60;13.17;;;;;;;25.75;100.00;101113.31;2081153;28;20275;-64
2023/07/18 01:16:32;;;;;;;14.90;13.30;;;;;;;26.55;100.00;101245.25;2081713;28;20227;-65
2023/07/18 01:17:33;;;;;;;14.37;12.93;;;;;;;26.52;100.00;101243.47;2081365;28;20265;-64
2023/07/18 01:18:34;;;;;;;14.37;12.97;;;;;;;26.15;100.00;101189.25;2081558;28;20243;-65
2023/07/18 01:19:35;;;;;;;13.83;12.60;;;;;;;26.49;100.00;101248.16;2081546;28;20177;-64
2023/07/18 01:20:36;;;;;;;13.53;12.13;;;;;;;26.40;100.00;101251.31;2089891;28;20264;-64
2023/07/18 01:21:37;;;;;;;14.00;12.60;;;;;;;26.39;100.00;101246.91;2081862;28;20192;-65
2023/07/18 01:22:38;;;;;;;13.93;12.57;;;;;;;26.40;100.00;101245.63;2080767;28;20168;-65
2023/07/18 01:23:39;;;;;;;13.97;12.57;;;;;;;26.40;100.00;101248.47;2080979;28;20734;-65
2023/07/18 01:24:39;;;;;;;14.47;13.00;;;;;;;26.41;100.00;101252.09;2084466;28;20592;-64
2023/07/18 01:25:40;;;;;;;13.80;12.53;;;;;;;26.35;100.00;101254.19;2087345;28;20211;-64
2023/07/18 01:26:41;;;;;;;14.47;13.20;;;;;;;26.35;100.00;101254.19;2081060;28;20179;-64
2023/07/18 01:27:41;;;;;;;15.50;13.60;;;;;;;25.75;100.00;101150.22;2081448;28;20184;-65
2023/07/18 01:28:42;;;;;;;15.63;12.50;;;;;;;26.31;100.00;101245.94;2081427;28;20251;-65
2023/07/18 01:29:44;;;;;;;14.43;13.00;;;;;;;25.76;100.00;101178.09;2088333;28;20214;-65
2023/07/18 01:30:45;;;;;;;14.13;12.63;;;;;;;26.27;100.00;101253.19;2083013;28;20650;-64
2023/07/18 01:31:45;;;;;;;14.57;13.10;;;;;;;26.24;100.00;101252.19;2081362;28;20577;-65
2023/07/18 01:32:49;;;;;;;14.53;12.93;;;;;;;26.21;100.00;101244.69;2081448;28;20189;-64
2023/07/18 01:33:49;;;;;;;14.00;12.70;;;;;;;26.18;100.00;101242.94;2078347;28;20196;-65
2023/07/18 01:34:50;;;;;;;23.47;14.43;;;;;;;26.26;100.00;101254.50;2074160;28;20202;-65
2023/07/18 01:35:51;;;;;;;24.27;13.47;;;;;;;26.21;100.00;101241.84;2081588;28;20232;-65
2023/07/18 01:36:52;;;;;;;19.70;13.90;;;;;;;26.25;100.00;101252.97;2073454;28;20201;-64
2023/07/18 01:37:54;;;;;;;24.53;14.20;;;;;;;26.23;100.00;101253.50;2080616;28;20204;-65
2023/07/18 01:38:55;;;;;;;25.50;14.20;;;;;;;26.29;100.00;101253.44;2081184;28;20193;-64
2023/07/18 01:39:55;;;;;;;24.90;14.03;;;;;;;26.25;100.00;101252.97;2086399;28;20196;-64
2023/07/18 01:40:57;;;;;;;23.53;14.20;;;;;;;25.51;100.00;101161.44;2085378;28;20181;-65
2023/07/18 01:41:57;;;;;;;19.33;13.87;;;;;;;26.16;100.00;101259.72;2083680;28;20666;-65
2023/07/18 01:42:58;;;;;;;19.33;14.07;;;;;;;26.12;100.00;101258.47;2089827;28;20558;-65
2023/07/18 01:43:58;;;;;;;16.43;13.63;;;;;;;26.08;100.00;101261.56;2089262;28;20702;-64
2023/07/18 01:44:59;;;;;;;16.87;13.10;;;;;;;26.12;100.00;101256.41;2081233;28;20270;-64
2023/07/18 01:45:59;;;;;;;17.53;14.30;;;;;;;26.20;100.00;101262.28;2073801;28;20194;-65
2023/07/18 01:46:59;;;;;;;20.10;13.60;;;;;;;26.20;100.00;101274.41;2079413;28;20281;-65
2023/07/18 01:48:02;;;;;;;15.70;13.10;;;;;;;26.14;100.00;101261.53;2081308;28;20196;-65
2023/07/18 01:49:02;;;;;;;15.07;13.57;;;;;;;26.13;100.00;101271.34;2085365;28;20565;-65
2023/07/18 01:50:04;;;;;;;14.03;12.63;;;;;;;26.17;100.00;101275.47;2086674;28;20185;-65
2023/07/18 01:51:04;;;;;;;15.70;14.10;;;;;;;26.18;100.00;101271.34;2082532;28;20673;-64
2023/07/18 01:52:05;;;;;;;15.40;13.80;;;;;;;26.16;100.00;101271.06;2089453;28;20556;-64
2023/07/18 01:53:06;;;;;;;14.17;12.77;;;;;;;26.19;100.00;101272.09;2081325;28;20185;-65
2023/07/18 01:54:07;;;;;;;15.90;13.53;;;;;;;26.20;100.00;101268.72;2081347;28;20193;-64
2023/07/18 01:55:08;;;;;;;15.27;13.57;;;;;;;26.23;100.00;101269.75;2087961;28;20756;-64
2023/07/18 01:56:09;;;;;;;14.87;13.63;;;;;;;26.26;100.00;101265.88;2089163;28;20207;-65
2023/07/18 01:57:09;;;;;;;15.20;13.80;;;;;;;25.88;100.00;101207.94;2084874;28;20189;-64
2023/07/18 01:58:10;;;;;;;16.13;14.53;;;;;;;26.22;100.00;101266.16;2081178;28;20200;-64
2023/07/18 01:59:10;;;;;;;15.10;13.60;;;;;;;26.17;100.00;101261.28;2081134;28;20690;-65
2023/07/18 02:00:12;;;;;;;15.23;13.57;;;;;;;26.25;100.00;101293.50;2081773;28;20185;-65
2023/07/18 02:01:12;;;;;;;16.17;14.67;;;;;;;26.28;100.00;101280.31;2089474;28;20245;-64
2023/07/18 02:02:12;;;;;;;16.90;15.20;;;;;;;26.26;100.00;101271.56;2088635;28;20727;-64
2023/07/18 02:03:13;;;;;;;15.77;14.10;;;;;;;26.28;100.00;101278.25;2087466;28;20564;-64
2023/07/18 02:04:14;;;;;;;16.33;14.77;;;;;;;26.30;100.00;101274.91;2083772;28;20545;-64
2023/07/18 02:05:23;;;;;;;15.17;13.73;;;;;;;25.94;100.00;101214.41;2080875;28;20231;-65
2023/07/18 02:06:24;;;;;;;18.87;14.47;;;;;;;26.28;100.00;101264.03;2081209;28;20264;-64
2023/07/18 02:07:25;;;;;;;15.03;13.63;;;;;;;26.33;100.00;101280.28;2081788;28;20792;-65
2023/07/18 02:08:26;;;;;;;16.40;14.70;;;;;;;26.38;100.00;101278.69;2080318;28;20632;-65
2023/07/18 02:09:27;;;;;;;15.60;13.97;;;;;;;26.36;100.00;101279.22;2080430;28;20584;-64
2023/07/18 02:10:28;;;;;;;15.23;13.67;;;;;;;26.37;100.00;101271.47;2089730;28;20194;-65
2023/07/18 02:11:28;;;;;;;16.23;14.63;;;;;;;26.35;100.00;101274.09;2081200;28;20193;-64
2023/07/18 02:12:29;;;;;;;16.77;14.07;;;;;;;26.34;100.00;101278.19;2080967;28;20650;-64
2023/07/18 02:13:29;;;;;;;18.80;14.50;;;;;;;26.26;100.00;101266.63;2080927;28;20691;-65
2023/07/18 02:14:30;;;;;;;15.53;13.87;;;;;;;26.31;100.00;101285.72;2080560;28;20185;-65
2023/07/18 02:15:30;;;;;;;15.73;14.10;;;;;;;26.31;100.00;101279.28;2081206;28;20564;-64
2023/07/18 02:16:31;;;;;;;16.00;14.40;;;;;;;26.33;100.00;101280.28;2082895;28;20567;-65
2023/07/18 02:17:32;;;;;;;15.27;13.87;;;;;;;26.33;100.00;101280.28;2088915;28;20677;-64
2023/07/18 02:18:33;;;;;;;17.50;14.63;;;;;;;26.30;100.00;101281.34;2081378;28;20213;-65
2023/07/18 02:19:34;;;;;;;18.83;14.27;;;;;;;26.29;100.00;101287.53;2088462;28;20199;-64
2023/07/18 02:20:35;;;;;;;20.10;14.83;;;;;;;26.28;100.00;101280.31;2082495;28;20221;-64
2023/07/18 02:21:35;;;;;;;18.60;14.27;;;;;;;26.29;100.00;101288.31;2081035;28;20177;-65
2023/07/18 02:22:36;;;;;;;15.43;13.87;;;;;;;26.27;100.00;101285.25;2080902;28;20585;-64
2023/07/18 02:23:36;;;;;;;16.37;14.27;;;;;;;26.22;100.00;101290.94;2081312;28;20566;-64
2023/07/18 02:24:37;;;;;;;15.87;14.17;;;;;;;26.24;100.00;101294.03;2081145;28;20662;-65
2023/07/18 02:25:38;;;;;;;14.77;13.30;;;;;;;25.26;100.00;101145.53;2080202;28;20276;-65
2023/07/18 02:26:38;;;;;;;15.23;13.67;;;;;;;26.21;100.00;101292.25;2080383;28;20203;-64
2023/07/18 02:27:40;;;;;;;19.07;14.00;;;;;;;26.22;100.00;101291.72;2087850;28;20275;-64
2023/07/18 02:28:40;;;;;;;15.53;13.93;;;;;;;26.18;100.00;101293.28;2081047;28;20737;-64
2023/07/18 02:29:41;;;;;;;15.17;13.67;;;;;;;26.17;100.00;101298.22;2080455;28;20568;-64
2023/07/18 02:30:42;;;;;;;14.97;13.53;;;;;;;26.16;100.00;101290.19;2084896;28;20591;-67
2023/07/18 02:31:42;;;;;;;15.10;13.47;;;;;;;26.05;100.00;101282.50;2086301;28;20189;-67
2023/07/18 02:32:43;;;;;;;16.03;14.37;;;;;;;26.16;100.00;101293.03;2082100;28;20259;-66
2023/07/18 02:33:44;;;;;;;15.93;14.00;;;;;;;25.97;100.00;101275.84;2088784;28;20238;-66
2023/07/18 02:34:45;;;;;;;14.47;13.00;;;;;;;25.23;100.00;101164.34;2080948;28;20184;-66
2023/07/18 02:35:51;;;;;;;16.10;14.23;;;;;;;26.10;100.00;101301.59;2080937;28;20331;-67
2023/07/18 02:36:53;;;;;;;16.10;14.23;;;;;;;26.09;100.00;101305.72;2080867;28;20220;-65
2023/07/18 02:37:54;;;;;;;15.03;13.63;;;;;;;26.06;100.00;101306.75;2080973;28;20645;-64
2023/07/18 02:38:54;;;;;;;15.67;14.07;;;;;;;26.07;100.00;101305.50;2080650;28;20595;-66
2023/07/18 02:39:55;;;;;;;14.60;13.20;;;;;;;25.41;100.00;101202.75;2085167;28;20196;-66
2023/07/18 02:40:55;;;;;;;16.13;14.23;;;;;;;26.08;100.00;101311.94;2085639;28;20196;-66
2023/07/18 02:41:55;;;;;;;15.27;13.77;;;;;;;26.02;100.00;101306.28;2080362;28;20260;-66
2023/07/18 02:42:56;;;;;;;15.47;13.93;;;;;;;26.03;100.00;101318.41;2080562;28;20237;-66
2023/07/18 02:43:56;;;;;;;14.87;13.47;;;;;;;25.98;100.00;101317.13;2073040;28;20228;-67
2023/07/18 02:44:57;;;;;;;15.33;13.93;;;;;;;25.97;100.00;101312.75;2072640;28;20240;-66
2023/07/18 02:45:57;;;;;;;16.03;14.40;;;;;;;25.98;100.00;101307.84;2084427;28;20251;-66
2023/07/18 02:46:57;;;;;;;15.50;14.00;;;;;;;25.95;100.00;101317.41;2084126;28;20205;-66
2023/07/18 02:47:58;;;;;;;15.77;14.23;;;;;;;25.92;100.00;101310.72;2084227;28;20187;-66
2023/07/18 02:48:58;;;;;;;15.80;14.20;;;;;;;25.88;100.00;101324.38;2088991;28;20176;-67
2023/07/18 02:49:59;;;;;;;15.43;13.93;;;;;;;25.88;100.00;101315.84;2088994;28;20180;-66
2023/07/18 02:50:59;;;;;;;15.50;13.77;;;;;;;25.86;100.00;101314.84;2088778;28;20177;-66
2023/07/18 02:51:59;;;;;;;15.10;13.70;;;;;;;25.83;100.00;101315.88;2080950;28;20259;-66
2023/07/18 02:53:00;;;;;;;14.83;13.30;;;;;;;25.82;100.00;101329.31;2080567;28;20193;-67
2023/07/18 02:54:00;;;;;;;15.57;14.00;;;;;;;25.77;100.00;101326.47;2080772;28;20264;-67
2023/07/18 02:55:01;;;;;;;15.90;14.40;;;;;;;25.67;100.00;101325.22;2080513;28;20224;-67
2023/07/18 02:56:01;;;;;;;16.20;14.43;;;;;;;25.67;100.00;101333.72;2081133;28;20180;-67
2023/07/18 02:57:02;;;;;;;16.40;14.80;;;;;;;25.64;100.00;101329.09;2083045;28;20585;-66
2023/07/18 02:58:02;;;;;;;16.37;14.73;;;;;;;25.60;100.00;101329.38;2089238;28;20172;-66
2023/07/18 02:59:03;;;;;;;16.03;14.50;;;;;;;25.51;100.00;101306.94;2088704;28;20172;-66
2023/07/18 03:00:06;;;;;;;16.13;14.50;;;;;;;25.59;100.00;101316.44;2080453;28;20185;-66
2023/07/18 03:01:07;;;;;;;16.17;14.53;;;;;;;25.61;100.00;101319.56;2086124;28;20227;-66
2023/07/18 03:02:08;;;;;;;15.60;14.20;;;;;;;25.63;100.00;101313.34;2082457;28;20193;-66
2023/07/18 03:03:09;;;;;;;16.50;14.73;;;;;;;25.56;100.00;101296.84;2079820;28;20281;-66
2023/07/18 03:04:09;;;;;;;15.80;14.23;;;;;;;25.72;100.00;101325.19;2080169;28;20196;-66
2023/07/18 03:05:10;;;;;;;15.90;14.33;;;;;;;25.76;100.00;101320.03;2080341;28;20181;-66
2023/07/18 03:06:11;;;;;;;15.73;14.13;;;;;;;25.82;100.00;101323.63;2087507;28;20253;-67
2023/07/18 03:07:13;;;;;;;21.97;15.03;;;;;;;25.88;100.00;101320.75;2087951;28;20242;-66
2023/07/18 03:08:14;;;;;;;18.37;15.03;;;;;;;25.92;100.00;101313.56;2080220;28;20565;-65
2023/07/18 03:09:17;;;;;;;21.43;15.33;;;;;;;25.98;100.00;101313.50;2087119;28;20218;-64
2023/07/18 03:10:18;;;;;;;21.43;14.90;;;;;;;25.97;100.00;101309.91;2088633;28;20207;-65
2023/07/18 03:11:18;;;;;;;18.40;14.50;;;;;;;26.01;100.00;101306.81;2082990;28;20314;-65
2023/07/18 03:12:20;;;;;;;18.92;14.25;;;;;;;26.08;100.00;101309.88;2080223;28;20177;-65
2023/07/18 03:13:21;;;;;;;19.80;14.37;;;;;;;26.12;100.00;101315.25;2080779;28;20709;-65
2023/07/18 03:14:21;;;;;;;17.77;13.67;;;;;;;26.14;100.00;101316.28;2080481;28;20568;-65
2023/07/18 03:15:22;;;;;;;19.37;14.00;;;;;;;26.19;100.00;101311.88;2080715;28;20208;-67
2023/07/18 03:16:22;;;;;;;18.05;13.95;;;;;;;26.24;100.00;101311.06;2081052;28;20180;-67
2023/07/18 03:17:23;;;;;;;15.90;13.87;;;;;;;26.28;100.00;101312.34;2073296;28;20586;-65
2023/07/18 03:18:23;;;;;;;16.87;13.77;;;;;;;26.31;100.00;101316.22;2078853;28;20177;-65
2023/07/18 03:19:24;;;;;;;15.73;13.60;;;;;;;26.29;100.00;101316.72;2080559;28;20323;-64
2023/07/18 03:20:24;;;;;;;16.23;14.50;;;;;;;26.25;100.00;101292.75;2079989;28;20304;-65
2023/07/18 03:21:25;;;;;;;16.42;13.75;;;;;;;26.36;100.00;101315.41;2080084;28;20204;-64
2023/07/18 03:22:25;;;;;;;15.07;13.57;;;;;;;26.40;100.00;101313.81;2081608;28;20189;-65
2023/07/18 03:23:26;;;;;;;15.30;13.70;;;;;;;26.45;100.00;101317.94;2087774;28;20182;-65
2023/07/18 03:24:26;;;;;;;17.13;13.90;;;;;;;26.46;100.00;101313.81;2080299;28;20501;-65
2023/07/18 03:25:27;;;;;;;16.63;13.73;;;;;;;26.46;100.00;101317.41;2086820;28;20202;-65
2023/07/18 03:26:28;;;;;;;14.93;13.48;;;;;;;26.32;100.00;101312.84;2082601;28;20213;-65
2023/07/18 03:27:28;;;;;;;15.40;13.82;;;;;;;26.43;100.00;101324.16;2084534;28;20195;-65
2023/07/18 03:28:29;;;;;;;15.40;13.93;;;;;;;26.45;100.00;101321.53;2082319;28;20217;-65
2023/07/18 03:29:29;;;;;;;16.08;13.98;;;;;;;26.13;100.00;101279.88;2079750;28;20207;-64
2023/07/18 03:30:30;;;;;;;15.45;13.90;;;;;;;26.39;100.00;101322.88;2079937;28;20187;-65
2023/07/18 03:31:30;;;;;;;14.70;13.20;;;;;;;26.42;100.00;101322.63;2079814;28;20197;-64
2023/07/18 03:32:31;;;;;;;17.92;13.75;;;;;;;26.48;100.00;101322.56;2088506;28;20259;-65
2023/07/18 03:33:31;;;;;;;14.77;13.07;;;;;;;26.51;100.00;101318.69;2081023;28;20686;-64
2023/07/18 03:34:32;;;;;;;14.10;12.80;;;;;;;26.56;100.00;101324.34;2079958;28;20658;-65
2023/07/18 03:35:32;;;;;;;15.98;14.18;;;;;;;26.62;100.00;101327.91;2079624;28;20205;-65
2023/07/18 03:36:35;;;;;;;15.23;13.73;;;;;;;25.54;100.00;101149.78;2079353;28;20255;-64
2023/07/18 03:37:35;;;;;;;14.93;13.32;;;;;;;26.65;100.00;101324.03;2082331;28;20722;-64
2023/07/18 03:38:36;;;;;;;14.27;13.07;;;;;;;26.70;100.00;101323.22;2081704;28;20193;-64
2023/07/18 03:39:36;;;;;;;21.02;13.98;;;;;;;26.67;100.00;101312.91;2080636;28;20264;-65
2023/07/18 03:40:36;;;;;;;15.48;13.93;;;;;;;26.75;100.00;101322.41;2080839;28;20188;-65
2023/07/18 03:41:38;;;;;;;14.82;13.27;;;;;;;26.79;100.00;101322.91;2080581;28;20669;-65
2023/07/18 03:42:38;;;;;;;16.23;13.27;;;;;;;26.81;100.00;101320.28;2080238;28;20205;-65
2023/07/18 03:43:39;;;;;;;16.02;14.20;;;;;;;26.81;100.00;101320.28;2080393;28;20180;-65
2023/07/18 03:44:41;;;;;;;21.85;14.30;;;;;;;26.84;100.00;101312.78;2079707;28;20200;-64
2023/07/18 03:45:41;;;;;;;19.27;13.32;;;;;;;26.87;100.00;101325.94;2080690;28;20169;-65
2023/07/18 03:46:41;;;;;;;20.45;13.50;;;;;;;26.91;100.00;101318.66;2080486;28;20184;-64
2023/07/18 03:47:42;;;;;;;20.65;14.70;;;;;;;26.94;100.00;101322.53;2080856;28;20646;-65
2023/07/18 03:48:43;;;;;;;22.98;13.32;;;;;;;26.93;100.00;101315.31;2081336;28;20208;-65
2023/07/18 03:49:43;;;;;;;19.30;13.52;;;;;;;27.00;100.00;101312.66;2080637;28;20287;-65
2023/07/18 03:50:44;;;;;;;14.43;13.13;;;;;;;27.01;100.00;101321.94;2086185;28;20199;-65
2023/07/18 03:51:44;;;;;;;14.27;12.88;;;;;;;27.02;100.00;101312.88;2082941;28;20272;-65
2023/07/18 03:52:45;;;;;;;13.75;12.35;;;;;;;27.03;100.00;101314.41;2084373;28;20234;-65
2023/07/18 03:53:45;;;;;;;13.68;12.40;;;;;;;27.07;100.00;101308.47;2083429;28;20215;-64
2023/07/18 03:54:46;;;;;;;14.45;12.88;;;;;;;27.12;100.00;101316.19;2082407;28;20173;-65
2023/07/18 03:55:46;;;;;;;13.70;12.40;;;;;;;27.15;100.00;101315.09;2082276;28;20173;-64
2023/07/18 03:56:47;;;;;;;14.45;12.77;;;;;;;27.17;100.00;101316.13;2090453;28;20177;-65
2023/07/18 03:57:47;;;;;;;14.02;12.68;;;;;;;27.18;100.00;101314.09;2082987;28;20184;-65
2023/07/18 03:58:50;;;;;;;14.70;13.20;;;;;;;27.21;100.00;101313.00;2081722;28;20669;-65
2023/07/18 03:59:50;;;;;;;15.18;13.32;;;;;;;27.25;100.00;101310.66;2082059;28;20176;-65
2023/07/18 04:00:50;;;;;;;14.50;13.00;;;;;;;27.28;100.00;101313.19;2085976;28;20200;-65
2023/07/18 04:01:52;;;;;;;13.13;11.82;;;;;;;27.30;100.00;101313.44;2084471;28;20276;-64
2023/07/18 04:02:52;;;;;;;14.18;12.77;;;;;;;27.28;100.00;101313.19;2079401;28;20188;-65
2023/07/18 04:03:53;;;;;;;17.58;12.60;;;;;;;26.63;100.00;101214.97;2081239;28;20181;-64
2023/07/18 04:04:53;;;;;;;13.70;12.32;;;;;;;27.24;100.00;101307.03;2081940;28;20229;-65
2023/07/18 04:05:53;;;;;;;14.35;12.85;;;;;;;27.32;100.00;101310.81;2081464;28;20200;-65
2023/07/18 04:06:54;;;;;;;14.00;12.40;;;;;;;27.31;100.00;101297.91;2081576;28;20688;-64
2023/07/18 04:07:54;;;;;;;14.52;13.07;;;;;;;27.38;100.00;101310.78;2081706;28;20190;-65
2023/07/18 04:08:55;;;;;;;14.32;12.48;;;;;;;27.40;100.00;101305.31;2081674;28;20286;-65
2023/07/18 04:09:55;;;;;;;15.10;12.77;;;;;;;27.30;100.00;101299.22;2082037;28;20193;-65
2023/07/18 04:10:58;;;;;;;15.35;12.27;;;;;;;27.41;100.00;101301.94;2081072;28;20181;-64
2023/07/18 04:11:58;;;;;;;14.15;12.60;;;;;;;27.41;100.00;101296.25;2078868;28;20649;-65
2023/07/18 04:12:58;;;;;;;15.73;12.60;;;;;;;27.49;100.00;101302.13;2078402;28;20223;-65
2023/07/18 04:13:59;;;;;;;14.43;13.05;;;;;;;27.51;100.00;101300.28;2080844;28;20656;-64
2023/07/18 04:14:59;;;;;;;14.73;13.32;;;;;;;27.23;100.00;101279.13;2079333;28;20215;-65
2023/07/18 04:16:00;;;;;;;14.15;12.75;;;;;;;27.46;100.00;101306.03;2079517;28;20195;-66
2023/07/18 04:17:00;;;;;;;14.68;13.18;;;;;;;27.51;100.00;101310.91;2082163;28;20199;-65
2023/07/18 04:18:01;;;;;;;14.10;12.80;;;;;;;27.52;100.00;101318.91;2080897;28;21538;-65
2023/07/18 04:19:01;;;;;;;13.83;12.43;;;;;;;27.54;100.00;101309.84;2080653;28;20176;-64
2023/07/18 04:20:04;;;;;;;13.85;12.55;;;;;;;27.58;100.00;101301.78;2080808;28;20185;-64
2023/07/18 04:21:04;;;;;;;14.60;12.77;;;;;;;27.54;100.00;101304.91;2080077;28;20564;-65
2023/07/18 04:22:05;;;;;;;13.75;12.20;;;;;;;27.62;100.00;101305.06;2081342;28;20212;-65
2023/07/18 04:23:05;;;;;;;14.50;12.85;;;;;;;27.65;100.00;101301.16;2081140;28;20200;-64
2023/07/18 04:24:08;;;;;;;14.05;12.75;;;;;;;27.68;100.00;101300.13;2080904;28;20197;-64
2023/07/18 04:25:09;;;;;;;13.85;12.38;;;;;;;27.26;100.00;101253.19;2081482;28;20234;-65
2023/07/18 04:26:09;;;;;;;14.18;12.77;;;;;;;27.68;100.00;101303.72;2082747;28;20661;-64
2023/07/18 04:27:09;;;;;;;14.25;12.82;;;;;;;27.65;100.00;101301.97;2081366;28;20689;-65
2023/07/18 04:28:10;;;;;;;15.73;12.60;;;;;;;27.49;100.00;101268.72;2081825;28;20255;-65
2023/07/18 04:29:10;;;;;;;14.68;13.27;;;;;;;27.74;100.00;101307.25;2082362;28;20270;-65
2023/07/18 04:30:11;;;;;;;14.38;13.07;;;;;;;27.79;100.00;101305.69;2081886;28;20196;-65
2023/07/18 04:31:13;;;;;;;14.95;13.45;;;;;;;27.82;100.00;101301.78;2081243;28;20208;-65
2023/07/18 04:32:13;;;;;;;14.30;13.00;;;;;;;27.56;100.00;101262.44;2081064;28;20208;-65
2023/07/18 04:33:14;;;;;;;14.80;13.13;;;;;;;27.89;100.00;101313.34;2080976;28;20193;-64